createdAt,value
2023-04-11T03:45:29.193Z,90.90
2023-04-11T03:47:56.237Z,90.90
2023-04-11T03:50:23.277Z,91.00
2023-04-11T03:52:50.265Z,91.10
2023-04-11T03:55:17.187Z,91.20
2023-04-11T03:57:44.155Z,91.10
2023-04-11T04:00:12.586Z,91.30
2023-04-11T04:02:39.777Z,91.70
2023-04-11T04:05:07.395Z,91.70
2023-04-11T04:07:35.209Z,91.70
2023-04-11T04:10:02.099Z,91.90
2023-04-11T04:12:29.021Z,91.80
2023-04-11T04:14:56.020Z,91.80
2023-04-11T04:17:23.714Z,92.00
2023-04-11T04:19:51.571Z,92.10
2023-04-11T04:22:18.725Z,92.20
2023-04-11T04:24:48.810Z,92.00
2023-04-11T04:27:18.186Z,92.20
2023-04-11T04:29:48.845Z,92.40
2023-04-11T04:32:22.754Z,92.30
2023-04-11T04:34:50.635Z,92.10
2023-04-11T04:37:23.023Z,92.00
2023-04-11T04:39:56.481Z,91.90
2023-04-11T04:42:24.301Z,91.90
2023-04-11T04:44:51.857Z,91.70
2023-04-11T04:47:19.436Z,91.40
2023-04-11T04:49:46.359Z,91.20
2023-04-11T04:52:13.996Z,91.20
2023-04-11T04:54:41.042Z,91.00
2023-04-11T04:57:08.192Z,90.50
2023-04-11T04:59:35.385Z,90.50
2023-04-11T05:02:02.486Z,90.00
2023-04-11T05:04:30.353Z,90.00
2023-04-11T05:06:57.363Z,90.20
2023-04-11T05:09:24.257Z,90.20
2023-04-11T05:11:51.240Z,90.00
2023-04-11T05:14:18.301Z,90.40
2023-04-11T05:16:45.368Z,90.70
2023-04-11T05:19:12.344Z,90.70
2023-04-11T05:21:39.369Z,91.20
2023-04-11T05:24:06.265Z,91.10
2023-04-11T05:26:33.536Z,91.20
2023-04-11T05:29:01.322Z,91.40
2023-04-11T05:31:28.894Z,91.30
2023-04-11T05:33:56.291Z,91.50
2023-04-11T05:36:23.328Z,91.50
2023-04-11T05:38:50.481Z,91.70
2023-04-11T05:41:17.474Z,91.70
2023-04-11T05:43:44.359Z,91.80
2023-04-11T05:46:12.795Z,92.10
2023-04-11T05:48:39.841Z,92.30
2023-04-11T05:51:07.441Z,92.50
2023-04-11T05:53:34.459Z,92.60
2023-04-11T05:56:01.396Z,92.90
2023-04-11T05:58:29.826Z,92.90
2023-04-11T06:00:57.804Z,92.90
2023-04-11T06:03:24.916Z,92.90
2023-04-11T06:05:52.041Z,92.80
2023-04-11T06:08:19.096Z,92.80
2023-04-11T06:10:46.183Z,92.70
2023-04-11T06:13:13.123Z,92.80
2023-04-11T06:15:40.223Z,90.70
2023-04-11T06:18:07.222Z,91.80
2023-04-11T06:20:34.150Z,92.80
2023-04-11T06:23:01.690Z,92.30
2023-04-11T06:25:28.765Z,91.70
2023-04-11T06:27:55.871Z,92.10
2023-04-11T06:30:22.835Z,92.00
2023-04-11T06:32:49.767Z,91.80
2023-04-11T06:35:16.857Z,91.50
2023-04-11T06:37:45.888Z,91.50
2023-04-11T06:40:12.935Z,91.80
2023-04-11T06:42:39.919Z,91.70
2023-04-11T06:45:07.056Z,91.50
2023-04-11T06:47:34.064Z,91.10
2023-04-11T06:50:01.084Z,91.10
2023-04-11T06:52:28.415Z,91.30
2023-04-11T06:54:55.385Z,91.20
2023-04-11T06:57:22.411Z,90.80
2023-04-11T06:59:49.367Z,90.60
2023-04-11T07:02:16.824Z,90.60
2023-04-11T07:04:44.197Z,90.40
2023-04-11T07:07:11.344Z,90.40
2023-04-11T07:09:38.293Z,90.40
2023-04-11T07:12:05.608Z,90.30
2023-04-11T07:14:32.501Z,90.20
2023-04-11T07:16:59.686Z,90.30
2023-04-11T07:19:26.575Z,90.40
2023-04-11T07:21:53.484Z,90.30
2023-04-11T07:24:20.932Z,90.10
2023-04-11T07:26:50.361Z,90.00
2023-04-11T07:29:17.396Z,89.60
2023-04-11T07:31:45.049Z,90.00
2023-04-11T07:34:12.146Z,90.00
2023-04-11T07:36:39.493Z,90.00
2023-04-11T07:39:09.284Z,89.80
2023-04-11T07:41:37.176Z,89.20
2023-04-11T07:44:06.416Z,89.40
2023-04-11T07:46:33.909Z,88.50
2023-04-11T07:49:01.176Z,88.60
2023-04-11T07:51:28.127Z,88.20
2023-04-11T07:53:55.489Z,86.80
2023-04-11T07:56:22.703Z,87.30
2023-04-11T07:58:50.010Z,87.90
2023-04-11T08:01:23.879Z,86.30
2023-04-11T08:03:54.365Z,86.20
2023-04-11T08:06:21.963Z,86.50
2023-04-11T08:08:49.274Z,86.70
2023-04-11T08:11:16.422Z,86.60
2023-04-11T08:13:43.404Z,85.70
2023-04-11T08:16:11.943Z,85.30
2023-04-11T08:18:42.257Z,85.40
2023-04-11T08:21:10.813Z,85.80
2023-04-11T08:23:39.722Z,84.90
2023-04-11T08:26:07.192Z,84.50
2023-04-11T08:28:34.477Z,84.30
2023-04-11T08:31:02.754Z,84.40
2023-04-11T08:33:30.226Z,83.80
2023-04-11T08:35:57.120Z,84.50
2023-04-11T08:38:24.004Z,84.30
2023-04-11T08:40:51.419Z,82.70
2023-04-11T08:43:18.956Z,83.10
2023-04-11T08:45:45.963Z,83.10
2023-04-11T08:48:12.878Z,83.70
2023-04-11T08:50:40.878Z,83.10
2023-04-11T08:53:08.348Z,83.10
2023-04-11T08:55:35.946Z,83.40
2023-04-11T08:58:03.710Z,82.90
2023-04-11T09:00:32.320Z,82.00
2023-04-11T09:03:00.704Z,82.00
2023-04-11T09:05:40.989Z,80.50
2023-04-11T09:08:09.209Z,81.30
2023-04-11T09:10:36.656Z,81.40
2023-04-11T09:13:21.281Z,81.90
2023-04-11T09:15:48.541Z,81.30
2023-04-11T09:18:31.844Z,80.50
2023-04-11T09:20:59.922Z,80.60
2023-04-11T09:23:27.483Z,79.40
2023-04-11T09:25:54.462Z,78.40
2023-04-11T09:28:21.798Z,78.70
2023-04-11T09:30:52.624Z,78.80
2023-04-11T09:33:22.374Z,78.10
2023-04-11T09:35:53.122Z,78.90
2023-04-11T09:38:30.680Z,79.70
2023-04-11T09:40:58.016Z,79.80
2023-04-11T09:43:25.252Z,79.10
2023-04-11T09:46:07.967Z,79.20
2023-04-11T09:48:46.074Z,78.40
2023-04-11T09:51:27.654Z,78.50
2023-04-11T09:54:02.187Z,79.50
2023-04-11T09:56:30.689Z,78.70
2023-04-11T09:58:59.697Z,78.70
2023-04-11T10:01:27.114Z,77.90
2023-04-11T10:03:55.415Z,77.70
2023-04-11T10:06:33.675Z,76.90
2023-04-11T10:09:19.521Z,77.00
2023-04-11T10:11:46.531Z,76.90
2023-04-11T10:14:32.665Z,76.50
2023-04-11T10:17:22.191Z,76.00
2023-04-11T10:19:53.944Z,75.20
2023-04-11T10:22:39.464Z,74.20
2023-04-11T10:25:16.749Z,73.80
2023-04-11T10:27:50.473Z,74.40
2023-04-11T10:30:17.539Z,76.00
2023-04-11T10:33:23.350Z,74.00
2023-04-11T10:36:01.976Z,74.40
2023-04-11T10:38:35.243Z,74.20
2023-04-11T10:41:18.620Z,74.70
2023-04-11T10:43:46.148Z,75.00
2023-04-11T10:46:19.587Z,80.70
2023-04-11T10:48:56.447Z,83.90
2023-04-11T10:51:24.883Z,84.90
2023-04-11T10:53:52.479Z,85.50
2023-04-11T10:56:38.206Z,85.40
2023-04-11T10:59:05.147Z,85.40
2023-04-11T11:01:37.671Z,85.80
2023-04-11T11:04:10.341Z,85.60
2023-04-11T11:06:47.304Z,86.10
2023-04-11T11:09:23.494Z,86.40
2023-04-11T11:12:06.488Z,86.50
2023-04-11T11:14:33.498Z,86.40
2023-04-11T11:17:00.744Z,86.50
2023-04-11T11:19:27.858Z,86.50
2023-04-11T11:21:55.059Z,86.50
2023-04-11T11:24:25.858Z,86.80
2023-04-11T11:26:53.906Z,86.70
2023-04-11T11:29:37.834Z,86.90
2023-04-11T11:32:04.959Z,86.60
2023-04-11T11:34:32.785Z,86.10
2023-04-11T11:37:01.556Z,85.60
2023-04-11T11:39:30.341Z,84.80
2023-04-11T11:41:57.745Z,85.20
2023-04-11T11:44:28.639Z,84.30
2023-04-11T11:47:01.498Z,84.50
2023-04-11T11:49:42.707Z,84.70
2023-04-11T11:52:09.634Z,84.90
2023-04-11T11:54:43.193Z,84.50
2023-04-11T11:57:10.182Z,84.50
2023-04-11T11:59:37.447Z,84.60
2023-04-11T12:02:04.560Z,83.40
2023-04-11T12:04:32.323Z,83.30
2023-04-11T12:07:07.420Z,83.00
2023-04-11T12:09:34.394Z,83.60
2023-04-11T12:12:01.389Z,83.50
2023-04-11T12:14:29.448Z,83.20
2023-04-11T12:16:56.366Z,83.10
2023-04-11T12:19:23.437Z,83.70
2023-04-11T12:21:50.425Z,83.40
2023-04-11T12:24:17.373Z,83.00
2023-04-11T12:27:02.436Z,82.00
2023-04-11T12:29:32.856Z,82.40
2023-04-11T12:31:59.761Z,81.70
2023-04-11T12:34:26.890Z,82.40
2023-04-11T12:36:53.862Z,82.60
2023-04-11T12:39:20.987Z,82.10
2023-04-11T12:41:47.927Z,82.40
2023-04-11T12:44:14.837Z,82.20
2023-04-11T12:46:41.955Z,82.00
2023-04-11T12:49:08.946Z,82.00
2023-04-11T12:51:35.920Z,81.40
2023-04-11T12:54:03.781Z,81.00
2023-04-11T12:56:30.962Z,80.60
2023-04-11T12:58:58.094Z,80.80
2023-04-11T13:01:25.204Z,81.00
2023-04-11T13:03:52.708Z,80.80
2023-04-11T13:06:19.791Z,80.90
2023-04-11T13:08:47.011Z,81.10
2023-04-11T13:11:13.945Z,80.20
2023-04-11T13:13:40.828Z,80.50
2023-04-11T13:16:08.416Z,80.80
2023-04-11T13:18:35.381Z,81.40
2023-04-11T13:21:02.387Z,80.60
2023-04-11T13:23:29.274Z,80.20
2023-04-11T13:25:56.213Z,80.40
2023-04-11T13:28:23.593Z,80.90
2023-04-11T13:30:50.474Z,81.30
2023-04-11T13:33:17.436Z,81.10
2023-04-11T13:35:44.752Z,80.70
2023-04-11T13:38:12.636Z,81.20
2023-04-11T13:40:41.131Z,81.00
2023-04-11T13:43:08.237Z,81.10
2023-04-11T13:45:35.346Z,80.60
2023-04-11T13:48:02.581Z,80.80
2023-04-11T13:50:29.582Z,80.20
2023-04-11T13:52:57.661Z,79.70
2023-04-11T13:55:24.601Z,80.10
2023-04-11T13:57:51.511Z,80.40
2023-04-11T14:00:20.475Z,79.40
2023-04-11T14:02:48.343Z,79.10
2023-04-11T14:05:16.784Z,79.30
2023-04-11T14:07:43.668Z,79.90
2023-04-11T14:10:10.952Z,79.00
2023-04-11T14:12:38.139Z,79.40
2023-04-11T14:15:05.499Z,79.50
2023-04-11T14:17:32.480Z,80.00
2023-04-11T14:19:59.416Z,79.10
2023-04-11T14:22:27.154Z,78.50
2023-04-11T14:24:54.034Z,78.90
2023-04-11T14:27:21.023Z,78.90
2023-04-11T14:29:47.927Z,78.70
2023-04-11T14:32:14.880Z,78.90
2023-04-11T14:34:41.920Z,78.70
2023-04-11T14:37:08.865Z,78.40
2023-04-11T14:39:35.905Z,78.80
2023-04-11T14:42:02.966Z,78.00
2023-04-11T14:44:30.334Z,78.10
2023-04-11T14:46:57.263Z,78.30
2023-04-11T14:49:24.173Z,78.00
2023-04-11T14:51:51.414Z,78.20
2023-04-11T14:54:18.357Z,77.50
2023-04-11T14:56:45.299Z,77.00
2023-04-11T14:59:12.239Z,76.80
2023-04-11T15:01:39.378Z,76.50
2023-04-11T15:04:06.448Z,77.10
2023-04-11T15:06:33.514Z,77.60
2023-04-11T15:09:00.825Z,77.50
2023-04-11T15:11:28.010Z,77.00
2023-04-11T15:13:55.224Z,76.40
2023-04-11T15:16:22.435Z,76.20
2023-04-11T15:18:49.630Z,75.80
2023-04-11T15:21:16.693Z,75.90
2023-04-11T15:23:44.991Z,76.40
2023-04-11T15:26:11.898Z,74.60
2023-04-11T15:28:39.285Z,73.70
2023-04-11T15:31:07.559Z,74.70
2023-04-11T15:33:34.978Z,73.50
2023-04-11T15:36:02.226Z,73.40
2023-04-11T15:38:29.227Z,73.40
2023-04-11T15:40:58.348Z,73.30
2023-04-11T15:43:25.767Z,72.70
2023-04-11T15:45:53.483Z,71.90
2023-04-11T15:48:20.405Z,72.90
2023-04-11T15:50:47.313Z,71.50
2023-04-11T15:53:14.183Z,71.80
2023-04-11T15:55:41.797Z,71.10
2023-04-11T15:58:09.070Z,72.00
2023-04-11T16:00:36.603Z,72.50
2023-04-11T16:03:04.774Z,72.40
2023-04-11T16:05:32.578Z,72.50
2023-04-11T16:07:59.660Z,71.90
2023-04-11T16:10:26.688Z,71.10
2023-04-11T16:12:53.617Z,71.30
2023-04-11T16:15:20.670Z,71.20
2023-04-11T16:17:47.651Z,70.40
2023-04-11T16:20:18.525Z,71.00
2023-04-11T16:22:46.634Z,70.90
2023-04-11T16:25:15.750Z,71.40
2023-04-11T16:27:42.777Z,70.30
2023-04-11T16:30:09.953Z,70.30
2023-04-11T16:32:36.912Z,70.90
2023-04-11T16:35:03.922Z,71.40
2023-04-11T16:37:30.854Z,72.40
2023-04-11T16:39:57.945Z,71.00
2023-04-11T16:42:24.935Z,71.10
2023-04-11T16:44:51.927Z,71.40
2023-04-11T16:47:20.276Z,71.00
2023-04-11T16:49:47.377Z,71.00
2023-04-11T16:52:14.580Z,71.20
2023-04-11T16:54:41.515Z,70.80
2023-04-11T16:57:08.468Z,71.30
2023-04-11T16:59:35.631Z,70.80
2023-04-11T17:02:02.690Z,71.20
2023-04-11T17:04:29.816Z,70.30
2023-04-11T17:06:57.310Z,71.90
2023-04-11T17:09:24.367Z,71.40
2023-04-11T17:11:51.289Z,71.70
2023-04-11T17:14:18.199Z,71.60
2023-04-11T17:16:46.070Z,72.10
2023-04-11T17:19:13.440Z,71.90
2023-04-11T17:21:40.342Z,72.10
2023-04-11T17:24:07.306Z,71.90
2023-04-11T17:26:34.562Z,71.90
2023-04-11T17:29:01.856Z,72.00
2023-04-11T17:31:29.288Z,71.50
2023-04-11T17:33:56.483Z,71.50
2023-04-11T17:36:24.297Z,71.30
2023-04-11T17:38:54.194Z,71.80
2023-04-11T17:41:21.465Z,71.60
2023-04-11T17:43:48.450Z,71.70
2023-04-11T17:46:15.473Z,71.20
2023-04-11T17:48:42.490Z,71.90
2023-04-11T17:51:09.557Z,72.00
2023-04-11T17:53:36.469Z,72.10
2023-04-11T17:56:07.050Z,72.30
2023-04-11T17:58:34.078Z,72.80
2023-04-11T18:01:03.468Z,73.20
2023-04-11T18:03:35.322Z,73.20
2023-04-11T18:06:02.948Z,73.20
2023-04-11T18:08:46.756Z,73.10
2023-04-11T18:11:16.462Z,73.40
2023-04-11T18:13:43.823Z,73.30
2023-04-11T18:16:11.345Z,73.20
2023-04-11T18:18:38.483Z,73.30
2023-04-11T18:21:07.559Z,73.80
2023-04-11T18:23:35.085Z,73.60
2023-04-11T18:26:02.111Z,74.30
2023-04-11T18:28:29.216Z,73.30
2023-04-11T18:30:56.490Z,73.70
2023-04-11T18:33:23.755Z,73.50
2023-04-11T18:35:50.695Z,73.60
2023-04-11T18:38:17.825Z,73.70
2023-04-11T18:40:44.798Z,73.30
2023-04-11T18:43:11.790Z,73.60
2023-04-11T18:45:39.417Z,74.40
2023-04-11T18:48:07.308Z,74.10
2023-04-11T18:50:38.821Z,74.70
2023-04-11T18:53:08.899Z,74.40
2023-04-11T18:55:38.281Z,74.50
2023-04-11T18:58:08.888Z,74.80
2023-04-11T19:00:36.761Z,75.30
2023-04-11T19:03:05.045Z,75.10
2023-04-11T19:05:33.424Z,76.00
2023-04-11T19:08:00.739Z,75.60
2023-04-11T19:10:27.654Z,75.50
2023-04-11T19:12:54.678Z,75.20
2023-04-11T19:15:21.628Z,75.70
2023-04-11T19:17:48.581Z,75.40
2023-04-11T19:20:16.544Z,75.40
2023-04-11T19:22:43.717Z,75.00
2023-04-11T19:25:11.190Z,75.20
2023-04-11T19:27:40.143Z,75.30
2023-04-11T19:30:08.646Z,76.10
2023-04-11T19:32:38.449Z,76.00
2023-04-11T19:35:08.406Z,75.30
2023-04-11T19:37:36.217Z,75.90
2023-04-11T19:40:07.085Z,76.20
2023-04-11T19:42:36.868Z,77.10
2023-04-11T19:45:04.569Z,77.60
2023-04-11T19:47:32.168Z,78.70
2023-04-11T19:50:00.697Z,79.60
2023-04-11T19:52:28.432Z,80.20
2023-04-11T19:54:55.770Z,80.30
2023-04-11T19:57:23.057Z,81.40
2023-04-11T19:59:50.513Z,81.10
2023-04-11T20:02:17.594Z,81.20
2023-04-11T20:04:45.725Z,81.50
2023-04-11T20:07:12.972Z,81.90
2023-04-11T20:09:39.902Z,82.00
2023-04-11T20:12:07.212Z,82.30
2023-04-11T20:14:34.163Z,82.40
2023-04-11T20:17:01.321Z,82.80
2023-04-11T20:19:29.589Z,83.30
2023-04-11T20:21:56.725Z,83.30
2023-04-11T20:24:23.993Z,83.40
2023-04-11T20:26:51.283Z,84.30
2023-04-11T20:29:18.376Z,83.90
2023-04-11T20:31:45.331Z,84.20
2023-04-11T20:34:12.354Z,84.30
2023-04-11T20:36:39.503Z,84.80
2023-04-11T20:39:06.432Z,84.90
2023-04-11T20:41:33.981Z,85.00
2023-04-11T20:44:00.961Z,85.00
2023-04-11T20:46:29.563Z,85.20
2023-04-11T20:48:56.904Z,85.30
2023-04-11T20:51:24.928Z,85.60
2023-04-11T20:53:51.885Z,85.50
2023-04-11T20:56:18.786Z,85.60
2023-04-11T20:58:46.416Z,85.70
2023-04-11T21:01:13.468Z,85.90
2023-04-11T21:03:42.403Z,85.60
2023-04-11T21:06:10.172Z,85.90
2023-04-11T21:08:37.672Z,85.70
2023-04-11T21:11:05.510Z,85.80
2023-04-11T21:13:32.454Z,86.60
2023-04-11T21:15:59.494Z,85.90
2023-04-11T21:18:26.615Z,86.70
2023-04-11T21:20:53.549Z,86.40
2023-04-11T21:23:20.581Z,86.20
2023-04-11T21:25:47.512Z,86.60
2023-04-11T21:28:14.531Z,87.00
2023-04-11T21:30:42.266Z,87.40
2023-04-11T21:33:10.237Z,87.70
2023-04-11T21:35:37.196Z,88.10
2023-04-11T21:38:04.283Z,88.30
2023-04-11T21:40:31.225Z,88.30
2023-04-11T21:42:58.123Z,88.80
2023-04-11T21:45:25.195Z,89.70
2023-04-11T21:47:52.143Z,89.70
2023-04-11T21:50:19.077Z,90.10
2023-04-11T21:52:46.416Z,90.10
2023-04-11T21:55:14.424Z,90.20
2023-04-11T21:57:41.484Z,90.40
2023-04-11T22:00:10.664Z,90.60
2023-04-11T22:02:37.965Z,90.80
2023-04-11T22:05:07.248Z,91.00
2023-04-11T22:07:38.692Z,91.20
2023-04-11T22:10:09.554Z,91.40
2023-04-11T22:12:36.683Z,91.70
2023-04-11T22:15:04.094Z,91.80
2023-04-11T22:17:31.503Z,92.00
2023-04-11T22:19:58.489Z,92.20
2023-04-11T22:22:30.063Z,92.40
2023-04-11T22:24:59.869Z,92.30
2023-04-11T22:27:27.289Z,92.20
2023-04-11T22:29:57.104Z,92.40
2023-04-11T22:32:24.092Z,92.30
2023-04-11T22:34:51.208Z,92.30
2023-04-11T22:37:18.275Z,92.30
2023-04-11T22:39:45.541Z,92.40
2023-04-11T22:42:12.460Z,92.30
2023-04-11T22:44:39.445Z,92.40
2023-04-11T22:47:08.009Z,92.60
2023-04-11T22:49:41.026Z,92.50
2023-04-11T22:52:15.100Z,92.70
2023-04-11T22:54:42.549Z,92.60
2023-04-11T22:57:09.866Z,92.70
2023-04-11T22:59:36.843Z,92.60
